Time;durP1;ratioP1;P1;durP2;ratioP2;P2;SDS_P1;SDS_P2;PMS_P1;PMS_P2;Temp;Humidity;BMP_temperature;BMP_pressure;BME280_temperature;BME280_humidity;BME280_pressure;Samples;Min_cycle;Max_cycle;Signal;HPM_P1;HPM_P2
2021/01/24 00:02:25;;;;;;;4.97;0.73;;;2.70;99.90;;;;;;4966257;28;20066;-68
2021/01/24 00:04:53;;;;;;;5.80;0.68;;;2.80;99.90;;;;;;4963663;28;20050;-67
2021/01/24 00:07:19;;;;;;;4.72;1.05;;;2.70;99.90;;;;;;4966438;28;20098;-67
2021/01/24 00:09:46;;;;;;;4.55;2.50;;;2.70;99.90;;;;;;4962037;28;20169;-69
2021/01/24 00:12:12;;;;;;;6.80;0.95;;;2.70;99.90;;;;;;4965360;28;20113;-65
2021/01/24 00:14:39;;;;;;;4.70;0.60;;;2.60;99.90;;;;;;4965096;28;20139;-67
2021/01/24 00:17:05;;;;;;;4.65;0.88;;;2.70;99.90;;;;;;4967018;28;20165;-67
2021/01/24 00:19:32;;;;;;;3.83;0.63;;;2.60;99.90;;;;;;4967176;28;20129;-66
2021/01/24 00:21:58;;;;;;;3.95;0.47;;;2.60;99.90;;;;;;4963294;28;20097;-67
2021/01/24 00:24:25;;;;;;;5.30;0.57;;;2.60;99.90;;;;;;4969017;28;20118;-68
2021/01/24 00:26:51;;;;;;;2.35;0.45;;;2.60;99.90;;;;;;4963336;28;20082;-68
2021/01/24 00:29:18;;;;;;;4.78;0.65;;;2.60;99.90;;;;;;4969020;28;20419;-67
2021/01/24 00:31:44;;;;;;;0.90;0.50;;;2.60;99.90;;;;;;4964065;28;20086;-66
2021/01/24 00:34:11;;;;;;;2.58;0.82;;;2.70;99.90;;;;;;4955207;28;20589;-67
2021/01/24 00:36:38;;;;;;;3.75;0.82;;;2.70;99.90;;;;;;4963779;28;21232;-66
2021/01/24 00:39:05;;;;;;;2.83;0.50;;;2.70;99.90;;;;;;4958704;28;20835;-65
2021/01/24 00:41:32;;;;;;;1.92;0.80;;;2.70;99.90;;;;;;4959145;28;20055;-66
2021/01/24 00:43:59;;;;;;;7.03;2.55;;;2.70;99.90;;;;;;4961178;28;20149;-67
2021/01/24 00:46:26;;;;;;;4.63;1.10;;;2.80;99.90;;;;;;4970915;28;20039;-65
2021/01/24 00:48:52;;;;;;;8.30;0.63;;;2.80;99.90;;;;;;4961769;28;20086;-72
2021/01/24 00:51:19;;;;;;;9.02;1.73;;;2.80;99.90;;;;;;4965766;28;20129;-68
2021/01/24 00:53:46;;;;;;;3.53;0.73;;;2.80;99.90;;;;;;4960183;28;20042;-68
2021/01/24 00:56:12;;;;;;;1.13;0.85;;;2.80;99.90;;;;;;4963342;28;20049;-67
2021/01/24 00:58:39;;;;;;;1.25;0.40;;;2.80;99.90;;;;;;4961990;28;20148;-69
2021/01/24 01:01:05;;;;;;;3.47;0.50;;;2.80;99.90;;;;;;4969972;28;20058;-67
2021/01/24 01:03:31;;;;;;;3.30;0.77;;;2.80;99.90;;;;;;4963390;28;20120;-68
2021/01/24 01:05:58;;;;;;;2.60;0.57;;;2.80;99.90;;;;;;4962753;28;20591;-65
2021/01/24 01:08:24;;;;;;;8.18;0.88;;;2.80;99.90;;;;;;4961375;28;20051;-70
2021/01/24 01:10:51;;;;;;;3.90;0.60;;;2.80;99.90;;;;;;4961992;28;21066;-66
2021/01/24 01:13:17;;;;;;;3.97;2.03;;;2.80;99.90;;;;;;4969025;28;20376;-66
2021/01/24 01:15:44;;;;;;;2.65;0.98;;;2.90;99.90;;;;;;4962230;28;20050;-70
2021/01/24 01:18:10;;;;;;;1.63;0.47;;;2.90;99.90;;;;;;4963211;28;20046;-70
2021/01/24 01:20:37;;;;;;;1.98;0.68;;;2.90;99.90;;;;;;4963370;28;20519;-67
2021/01/24 01:23:03;;;;;;;1.90;0.63;;;2.90;99.90;;;;;;4964782;28;20105;-70
2021/01/24 01:25:30;;;;;;;2.40;0.75;;;2.90;99.90;;;;;;4958824;28;20042;-67
2021/01/24 01:27:57;;;;;;;5.88;0.98;;;2.90;99.90;;;;;;4963240;28;20047;-68
2021/01/24 01:30:23;;;;;;;4.53;0.50;;;2.90;99.90;;;;;;4959976;28;20074;-66
2021/01/24 01:32:50;;;;;;;2.20;0.40;;;2.80;99.90;;;;;;4963001;28;20061;-67
2021/01/24 01:35:17;;;;;;;1.85;0.40;;;2.90;99.90;;;;;;4962079;28;20046;-68
2021/01/24 01:37:43;;;;;;;2.28;0.25;;;2.90;99.90;;;;;;4960687;28;20043;-67
2021/01/24 01:40:10;;;;;;;0.60;0.40;;;2.90;99.90;;;;;;4964108;28;20078;-70
2021/01/24 01:42:37;;;;;;;2.38;0.30;;;2.90;99.90;;;;;;4961642;28;20054;-68
2021/01/24 01:45:05;;;;;;;5.38;0.57;;;2.90;99.90;;;;;;4966032;28;20065;-66
2021/01/24 01:47:32;;;;;;;0.20;0.10;;;2.90;99.90;;;;;;4961853;28;20082;-68
2021/01/24 01:49:59;;;;;;;3.55;0.73;;;2.90;99.90;;;;;;4961686;28;20046;-69
2021/01/24 01:52:27;;;;;;;3.08;0.28;;;2.90;99.90;;;;;;4959852;28;20054;-65
2021/01/24 01:54:55;;;;;;;8.27;2.05;;;3.00;99.90;;;;;;4965465;28;20046;-66
2021/01/24 01:57:23;;;;;;;2.10;0.32;;;3.00;99.90;;;;;;4962766;28;20136;-68
2021/01/24 01:59:50;;;;;;;1.55;0.20;;;3.00;99.90;;;;;;4961104;28;20451;-67
2021/01/24 02:02:45;;;;;;;2.05;0.20;;;3.00;99.90;;;;;;4956466;28;20777;-67
2021/01/24 02:05:34;;;;;;;1.98;0.75;;;3.00;99.90;;;;;;4962542;28;20062;-70
2021/01/24 02:08:20;;;;;;;2.00;0.30;;;3.00;99.90;;;;;;4961617;28;20535;-66
2021/01/24 02:11:12;;;;;;;2.55;0.43;;;3.00;99.90;;;;;;4963459;28;20053;-66
2021/01/24 02:14:13;;;;;;;0.32;0.15;;;3.00;99.90;;;;;;4960796;28;20050;-69
2021/01/24 02:16:40;;;;;;;1.30;0.40;;;3.00;99.90;;;;;;4961166;28;20051;-67
2021/01/24 02:19:15;;;;;;;1.05;0.75;;;3.00;99.90;;;;;;4962683;28;20085;-67
2021/01/24 02:21:44;;;;;;;2.92;0.25;;;3.00;99.90;;;;;;4964998;28;20069;-65
2021/01/24 02:24:14;;;;;;;2.45;0.20;;;3.00;99.90;;;;;;4959816;28;20244;-66
2021/01/24 02:27:03;;;;;;;2.53;0.25;;;3.00;99.90;;;;;;4963544;28;20043;-66
2021/01/24 02:30:06;;;;;;;2.70;0.30;;;3.00;99.90;;;;;;4961601;28;20050;-65
2021/01/24 02:32:33;;;;;;;1.05;0.47;;;3.10;99.90;;;;;;4956156;28;20038;-68
2021/01/24 02:35:02;;;;;;;2.58;0.38;;;3.10;99.90;;;;;;4962965;28;20132;-67
2021/01/24 02:37:30;;;;;;;6.45;1.88;;;3.10;99.90;;;;;;4963627;28;20849;-66
2021/01/24 02:39:58;;;;;;;2.75;0.47;;;3.10;99.90;;;;;;4961562;28;20412;-67
2021/01/24 02:42:26;;;;;;;4.07;0.93;;;3.10;99.90;;;;;;4959315;28;20059;-68
2021/01/24 02:44:53;;;;;;;7.10;0.52;;;3.10;99.90;;;;;;4956162;28;20062;-68
2021/01/24 02:47:20;;;;;;;0.77;0.43;;;3.10;99.90;;;;;;4962168;28;20050;-66
2021/01/24 02:49:49;;;;;;;1.63;0.60;;;3.10;99.90;;;;;;4961650;28;20068;-70
2021/01/24 02:52:16;;;;;;;3.70;0.40;;;3.10;99.90;;;;;;4956739;28;20479;-68
2021/01/24 02:54:44;;;;;;;3.72;0.70;;;3.10;99.90;;;;;;4964298;28;20487;-68
2021/01/24 02:57:11;;;;;;;4.38;0.52;;;3.10;99.90;;;;;;4961579;28;20066;-66
2021/01/24 02:59:38;;;;;;;4.43;0.35;;;3.10;99.90;;;;;;4964347;28;20082;-68
2021/01/24 03:02:04;;;;;;;1.45;0.30;;;3.10;99.90;;;;;;4960400;28;20042;-68
2021/01/24 03:04:31;;;;;;;8.85;1.60;;;3.10;99.90;;;;;;4969329;28;20066;-67
2021/01/24 03:06:58;;;;;;;1.65;0.40;;;3.10;99.90;;;;;;4959317;28;20073;-66
2021/01/24 03:09:24;;;;;;;3.53;0.60;;;3.20;99.90;;;;;;4960746;28;20106;-65
2021/01/24 03:11:53;;;;;;;2.58;0.65;;;3.10;99.90;;;;;;4963655;28;20051;-73
2021/01/24 03:14:24;;;;;;;1.55;0.50;;;3.20;99.90;;;;;;4959932;28;20062;-70
2021/01/24 03:16:56;;;;;;;5.93;0.45;;;3.20;99.90;;;;;;4960867;28;20073;-66
2021/01/24 03:19:26;;;;;;;1.30;0.32;;;3.20;99.90;;;;;;4961949;28;20402;-66
2021/01/24 03:21:53;;;;;;;2.30;0.57;;;3.20;99.90;;;;;;4960931;28;20086;-69
2021/01/24 03:24:24;;;;;;;1.70;0.57;;;3.20;99.90;;;;;;4957015;28;20054;-66
2021/01/24 03:26:51;;;;;;;4.03;0.45;;;3.20;99.90;;;;;;4963568;28;20051;-69
2021/01/24 03:29:19;;;;;;;1.58;0.60;;;3.20;99.90;;;;;;4959877;28;20043;-68
2021/01/24 03:31:46;;;;;;;2.35;0.70;;;3.20;99.90;;;;;;4963417;28;20062;-67
2021/01/24 03:34:23;;;;;;;3.30;1.38;;;3.20;99.90;;;;;;4962639;28;20034;-68
2021/01/24 03:36:52;;;;;;;3.42;1.00;;;3.20;99.90;;;;;;4967560;28;20303;-67
2021/01/24 03:39:19;;;;;;;1.35;0.40;;;3.20;99.90;;;;;;4963991;28;20039;-68
2021/01/24 03:41:47;;;;;;;1.65;0.28;;;3.20;99.90;;;;;;4962272;28;20086;-66
2021/01/24 03:44:13;;;;;;;2.72;0.57;;;3.20;99.90;;;;;;4965388;28;20046;-67
2021/01/24 03:46:40;;;;;;;3.55;0.93;;;3.20;99.90;;;;;;4965328;28;20062;-67
2021/01/24 03:49:07;;;;;;;4.22;1.52;;;3.20;99.90;;;;;;4969832;28;20078;-68
2021/01/24 03:51:42;;;;;;;3.00;0.52;;;3.20;99.90;;;;;;4964839;28;20055;-68
2021/01/24 03:54:09;;;;;;;6.25;0.70;;;3.20;99.90;;;;;;4968014;28;20095;-68
2021/01/24 03:56:35;;;;;;;2.78;0.75;;;3.20;99.90;;;;;;4963298;28;20098;-67
2021/01/24 03:59:02;;;;;;;4.38;1.15;;;3.30;99.90;;;;;;4968731;28;20448;-66
2021/01/24 04:01:30;;;;;;;4.93;0.95;;;3.20;99.90;;;;;;4964956;28;20554;-68
2021/01/24 04:03:57;;;;;;;3.20;1.20;;;3.20;99.90;;;;;;4968506;28;20146;-69
2021/01/24 04:06:24;;;;;;;1.90;0.40;;;3.20;99.90;;;;;;4963194;28;20054;-68
2021/01/24 04:08:51;;;;;;;3.92;0.95;;;3.10;99.90;;;;;;4963729;28;20451;-65
2021/01/24 04:11:18;;;;;;;7.28;1.73;;;3.10;99.90;;;;;;4962786;28;20042;-72
2021/01/24 04:13:46;;;;;;;6.47;0.73;;;3.10;99.90;;;;;;4967446;28;20407;-66
2021/01/24 04:16:12;;;;;;;4.75;0.70;;;3.10;99.90;;;;;;4964689;28;20052;-70
2021/01/24 04:18:40;;;;;;;0.75;0.40;;;3.00;99.90;;;;;;4962679;28;20050;-71
2021/01/24 04:21:06;;;;;;;2.03;0.55;;;3.00;99.90;;;;;;4968500;28;20189;-67
2021/01/24 04:23:32;;;;;;;7.75;0.70;;;2.90;99.90;;;;;;4963395;28;20101;-65
2021/01/24 04:25:59;;;;;;;2.30;0.40;;;3.00;99.90;;;;;;4969699;28;20054;-69
2021/01/24 04:28:26;;;;;;;2.00;0.93;;;3.00;99.90;;;;;;4962550;28;20047;-67
2021/01/24 04:30:52;;;;;;;4.20;2.03;;;2.90;99.90;;;;;;4966904;28;20055;-68
2021/01/24 04:33:19;;;;;;;5.65;0.90;;;3.00;99.90;;;;;;4963439;28;20639;-68
2021/01/24 04:35:45;;;;;;;4.88;0.50;;;3.00;99.90;;;;;;4961645;28;20047;-66
2021/01/24 04:38:12;;;;;;;3.65;0.95;;;3.00;99.90;;;;;;4960934;28;20470;-71
2021/01/24 04:40:38;;;;;;;1.75;0.60;;;3.00;99.90;;;;;;4967320;28;20554;-69
2021/01/24 04:43:05;;;;;;;3.95;0.45;;;2.90;99.90;;;;;;4964945;28;20746;-71
2021/01/24 04:45:32;;;;;;;7.65;0.82;;;2.90;99.90;;;;;;4963686;28;20074;-66
2021/01/24 04:48:17;;;;;;;8.32;1.00;;;2.90;99.90;;;;;;4962092;28;20062;-69
2021/01/24 04:50:44;;;;;;;3.85;0.40;;;2.90;99.90;;;;;;4962484;28;20271;-68
2021/01/24 04:53:11;;;;;;;1.30;0.32;;;2.90;99.90;;;;;;4962756;28;20057;-68
2021/01/24 04:55:39;;;;;;;4.72;1.05;;;2.90;99.90;;;;;;4962225;28;20057;-66
2021/01/24 04:58:06;;;;;;;1.50;0.50;;;3.00;99.90;;;;;;4971029;28;20451;-66
2021/01/24 05:00:34;;;;;;;3.35;0.52;;;3.00;99.90;;;;;;4960552;28;20042;-66
2021/01/24 05:03:01;;;;;;;1.90;1.17;;;3.00;99.90;;;;;;4961278;28;20043;-67
2021/01/24 05:05:27;;;;;;;3.10;0.63;;;3.00;99.90;;;;;;4962066;28;20047;-65
2021/01/24 05:07:58;;;;;;;3.05;0.70;;;3.00;99.90;;;;;;4963474;28;20456;-68
2021/01/24 05:10:25;;;;;;;;;;;3.00;99.90;;;;;;4961488;28;20058;-68
2021/01/24 05:12:53;;;;;;;2.00;0.30;;;3.10;99.90;;;;;;4962663;28;20013;-69
2021/01/24 05:15:20;;;;;;;2.92;0.43;;;3.10;99.90;;;;;;4964564;28;20399;-66
2021/01/24 05:17:57;;;;;;;1.42;0.50;;;3.10;99.90;;;;;;4963640;28;20125;-68
2021/01/24 05:20:26;;;;;;;2.20;0.55;;;3.10;99.90;;;;;;4966014;28;20043;-67
2021/01/24 05:22:55;;;;;;;1.33;0.30;;;3.10;99.90;;;;;;4961443;28;20047;-65
2021/01/24 05:25:32;;;;;;;1.77;0.65;;;3.10;99.90;;;;;;4968438;28;20055;-68
2021/01/24 05:28:26;;;;;;;2.40;0.45;;;3.20;99.90;;;;;;4961592;28;20043;-71
2021/01/24 05:31:06;;;;;;;3.65;0.57;;;3.20;99.90;;;;;;4959766;28;20047;-68
2021/01/24 05:33:33;;;;;;;4.13;0.57;;;3.20;99.90;;;;;;4961701;28;20130;-65
2021/01/24 05:36:06;;;;;;;2.30;0.50;;;3.20;99.90;;;;;;4960786;28;20129;-69
2021/01/24 05:38:33;;;;;;;3.20;0.52;;;3.30;99.90;;;;;;4960611;28;20051;-69
2021/01/24 05:41:10;;;;;;;2.15;0.30;;;3.30;99.90;;;;;;4965744;28;20165;-66
2021/01/24 05:43:42;;;;;;;3.35;0.73;;;3.30;99.90;;;;;;4961749;28;20109;-69
2021/01/24 05:46:10;;;;;;;4.80;1.80;;;3.40;99.90;;;;;;4962047;28;20046;-72
2021/01/24 05:48:46;;;;;;;1.15;0.60;;;3.40;99.90;;;;;;4961743;28;20716;-68
2021/01/24 05:51:14;;;;;;;6.03;1.25;;;3.40;99.90;;;;;;4958371;28;20054;-72
2021/01/24 05:53:45;;;;;;;1.65;0.52;;;3.40;99.90;;;;;;4960099;28;20173;-68
2021/01/24 05:56:17;;;;;;;7.28;1.25;;;3.40;99.90;;;;;;4964767;28;20058;-69
2021/01/24 05:58:44;;;;;;;1.67;0.55;;;3.40;99.90;;;;;;4960446;28;20706;-72
2021/01/24 06:01:11;;;;;;;4.18;1.20;;;3.40;99.90;;;;;;4962412;28;20561;-66
2021/01/24 06:03:39;;;;;;;3.40;0.57;;;3.40;99.90;;;;;;4968211;28;20050;-67
2021/01/24 06:06:05;;;;;;;15.35;2.70;;;3.40;99.90;;;;;;4961428;28;20078;-67
2021/01/24 06:08:32;;;;;;;1.48;0.47;;;3.50;99.90;;;;;;4964305;28;20053;-69
2021/01/24 06:10:59;;;;;;;6.93;1.00;;;3.50;99.90;;;;;;4961956;28;20137;-65
2021/01/24 06:13:27;;;;;;;4.88;1.98;;;3.50;99.90;;;;;;4964826;28;20088;-67
2021/01/24 06:16:04;;;;;;;2.88;0.77;;;3.50;99.90;;;;;;4964231;28;20133;-69
2021/01/24 06:18:44;;;;;;;1.65;0.65;;;3.50;99.90;;;;;;4962659;28;20124;-71
2021/01/24 06:21:16;;;;;;;1.23;0.50;;;3.50;99.90;;;;;;4959977;28;20038;-67
2021/01/24 06:24:00;;;;;;;2.15;0.68;;;3.50;99.90;;;;;;4966658;28;20052;-73
2021/01/24 06:26:28;;;;;;;4.15;0.70;;;3.50;99.90;;;;;;4961414;28;20039;-65
2021/01/24 06:29:02;;;;;;;4.30;0.88;;;3.50;99.90;;;;;;4961955;28;20062;-73
2021/01/24 06:31:31;;;;;;;3.30;1.45;;;3.60;99.90;;;;;;4962972;28;20059;-66
2021/01/24 06:34:06;;;;;;;5.25;0.80;;;3.50;99.90;;;;;;4964325;28;20128;-68
2021/01/24 06:37:05;;;;;;;2.58;1.20;;;3.50;99.90;;;;;;4958842;28;20039;-65
2021/01/24 06:39:39;;;;;;;8.77;1.27;;;3.50;99.90;;;;;;4965324;28;20051;-70
2021/01/24 06:42:05;;;;;;;3.17;1.40;;;3.50;99.90;;;;;;4961436;28;20325;-68
2021/01/24 06:44:34;;;;;;;6.63;1.60;;;3.50;99.90;;;;;;4965047;28;20159;-67
2021/01/24 06:47:03;;;;;;;2.72;0.68;;;3.50;99.90;;;;;;4962097;28;20415;-73
2021/01/24 06:49:43;;;;;;;8.02;1.10;;;3.40;99.90;;;;;;4963479;28;20502;-69
2021/01/24 06:52:18;;;;;;;9.43;1.23;;;3.40;99.90;;;;;;4960879;28;20511;-68
2021/01/24 06:54:46;;;;;;;3.33;0.85;;;3.40;99.90;;;;;;4962236;28;22251;-68
2021/01/24 06:57:12;;;;;;;6.43;1.58;;;3.40;99.90;;;;;;4965984;28;20054;-66
2021/01/24 06:59:39;;;;;;;2.13;0.80;;;3.50;99.90;;;;;;4961651;28;20446;-67
2021/01/24 07:02:23;;;;;;;6.78;1.23;;;3.40;99.90;;;;;;4968454;28;20117;-69
2021/01/24 07:05:09;;;;;;;1.48;0.65;;;3.50;99.90;;;;;;4957587;28;20133;-73
2021/01/24 07:07:44;;;;;;;7.18;2.13;;;3.50;99.90;;;;;;4966398;28;20058;-68
2021/01/24 07:10:36;;;;;;;2.70;0.45;;;3.50;99.90;;;;;;4963565;28;20716;-65
2021/01/24 07:13:29;;;;;;;3.70;0.75;;;3.50;99.90;;;;;;4966884;28;20109;-66
2021/01/24 07:15:58;;;;;;;5.28;1.02;;;3.40;99.90;;;;;;4965797;28;20065;-69
2021/01/24 07:18:25;;;;;;;4.95;2.15;;;3.50;99.90;;;;;;4966229;28;20133;-67
2021/01/24 07:20:53;;;;;;;1.25;0.35;;;3.50;99.90;;;;;;4964175;28;20743;-66
2021/01/24 07:23:20;;;;;;;3.20;0.82;;;3.50;99.90;;;;;;4957721;28;20149;-68
2021/01/24 07:25:47;;;;;;;3.67;0.95;;;3.50;99.90;;;;;;4964767;28;20047;-71
2021/01/24 07:28:15;;;;;;;4.47;0.65;;;3.50;99.90;;;;;;4956524;28;20043;-65
2021/01/24 07:30:42;;;;;;;1.25;0.20;;;3.50;99.90;;;;;;4962776;28;20042;-68
2021/01/24 07:33:09;;;;;;;2.13;0.55;;;3.50;99.90;;;;;;4967530;28;20042;-70
2021/01/24 07:35:37;;;;;;;1.70;0.43;;;3.50;99.90;;;;;;4966377;28;20047;-66
2021/01/24 07:38:04;;;;;;;7.15;0.95;;;3.50;99.90;;;;;;4962376;28;20038;-65
2021/01/24 07:40:31;;;;;;;4.05;0.70;;;3.50;99.90;;;;;;4967328;28;20073;-71
2021/01/24 07:42:58;;;;;;;1.55;0.43;;;3.60;99.90;;;;;;4964672;28;20074;-68
2021/01/24 07:45:45;;;;;;;1.67;0.70;;;3.60;99.90;;;;;;4966609;28;20434;-69
2021/01/24 07:48:13;;;;;;;4.30;1.30;;;3.60;99.90;;;;;;4965517;28;20062;-66
2021/01/24 07:50:41;;;;;;;7.53;1.05;;;3.60;99.90;;;;;;4967475;28;20050;-68
2021/01/24 07:53:09;;;;;;;9.70;2.78;;;3.60;99.90;;;;;;4964348;28;20050;-74
2021/01/24 07:55:40;;;;;;;4.18;1.10;;;3.60;99.90;;;;;;4974472;28;20046;-67
2021/01/24 07:58:07;;;;;;;2.70;1.13;;;3.70;99.90;;;;;;4964260;28;20158;-67
2021/01/24 08:00:34;;;;;;;3.53;0.90;;;3.70;99.90;;;;;;4967635;28;20039;-65
2021/01/24 08:03:01;;;;;;;6.32;1.30;;;3.70;99.90;;;;;;4965640;28;20138;-67
2021/01/24 08:05:32;;;;;;;3.03;1.02;;;3.70;99.90;;;;;;4962278;28;20375;-67
2021/01/24 08:07:59;;;;;;;4.63;1.35;;;3.70;99.90;;;;;;4963609;28;20141;-65
2021/01/24 08:10:32;;;;;;;7.15;1.10;;;3.70;99.90;;;;;;4966024;28;20074;-66
2021/01/24 08:13:02;;;;;;;10.38;1.42;;;3.60;99.90;;;;;;4964240;28;20051;-65
2021/01/24 08:15:28;;;;;;;8.98;2.08;;;3.70;99.90;;;;;;4964173;28;20039;-65
2021/01/24 08:17:58;;;;;;;5.20;2.30;;;3.70;99.90;;;;;;4965054;28;20125;-66
2021/01/24 08:20:29;;;;;;;9.63;3.28;;;3.60;99.90;;;;;;4966504;28;20091;-71
2021/01/24 08:22:57;;;;;;;6.65;1.60;;;3.60;99.90;;;;;;4963116;28;20051;-69
2021/01/24 08:25:23;;;;;;;9.20;1.95;;;3.60;99.90;;;;;;4964680;28;20046;-65
2021/01/24 08:27:50;;;;;;;13.15;1.88;;;3.60;99.90;;;;;;4960659;28;20054;-72
2021/01/24 08:30:17;;;;;;;7.65;1.75;;;3.60;99.90;;;;;;4963881;28;20070;-66
2021/01/24 08:32:43;;;;;;;16.55;2.13;;;3.70;99.90;;;;;;4969883;28;20078;-68
2021/01/24 08:35:14;;;;;;;8.35;2.40;;;3.70;99.90;;;;;;4964531;28;20406;-71
2021/01/24 08:37:41;;;;;;;13.90;2.63;;;3.70;99.90;;;;;;4964189;28;20050;-67
2021/01/24 08:40:08;;;;;;;10.57;2.72;;;3.70;99.90;;;;;;4962892;28;20047;-67
2021/01/24 08:42:46;;;;;;;11.80;3.95;;;3.80;99.90;;;;;;4972773;28;20490;-68
2021/01/24 08:45:21;;;;;;;9.95;2.30;;;3.80;99.90;;;;;;4962675;28;20050;-68
2021/01/24 08:47:56;;;;;;;9.63;2.28;;;3.80;99.90;;;;;;4963613;28;20047;-68
2021/01/24 08:50:29;;;;;;;11.95;3.65;;;3.90;99.90;;;;;;4960587;28;20160;-65
2021/01/24 08:53:01;;;;;;;15.82;2.42;;;3.90;99.90;;;;;;4964962;28;20054;-67
2021/01/24 08:55:28;;;;;;;6.38;1.60;;;3.90;99.90;;;;;;4966239;28;20047;-71
2021/01/24 08:57:55;;;;;;;7.43;1.63;;;3.90;99.90;;;;;;4961280;28;20102;-67
2021/01/24 09:00:23;;;;;;;6.25;2.22;;;3.90;99.90;;;;;;4964326;28;20046;-71
2021/01/24 09:02:49;;;;;;;9.25;2.72;;;3.90;99.90;;;;;;4963491;28;20576;-67
2021/01/24 09:05:30;;;;;;;11.45;1.50;;;3.90;99.90;;;;;;4966252;28;20050;-65
2021/01/24 09:07:57;;;;;;;6.30;1.38;;;3.90;99.90;;;;;;4962707;28;20157;-67
2021/01/24 09:10:25;;;;;;;6.85;1.67;;;4.00;99.90;;;;;;4964147;28;20541;-71
2021/01/24 09:12:59;;;;;;;4.35;1.98;;;4.00;99.90;;;;;;4963419;28;20055;-72
2021/01/24 09:15:30;;;;;;;2.47;1.20;;;4.00;99.90;;;;;;4963771;28;20054;-67
2021/01/24 09:17:58;;;;;;;9.52;2.58;;;4.00;99.90;;;;;;4962737;28;20054;-65
2021/01/24 09:20:27;;;;;;;6.40;1.58;;;4.00;99.90;;;;;;4963922;28;20050;-67
2021/01/24 09:22:54;;;;;;;9.52;1.40;;;4.00;99.90;;;;;;4961808;28;20439;-68
2021/01/24 09:25:39;;;;;;;5.28;1.48;;;3.90;99.90;;;;;;4972267;28;20052;-71
2021/01/24 09:28:05;;;;;;;5.38;1.83;;;3.90;99.90;;;;;;4962495;28;20062;-66
2021/01/24 09:30:32;;;;;;;5.40;1.67;;;3.90;99.90;;;;;;4963299;28;20325;-69
2021/01/24 09:32:58;;;;;;;9.02;1.67;;;4.00;99.90;;;;;;4967148;28;20082;-72
2021/01/24 09:35:25;;;;;;;6.28;1.85;;;4.00;99.90;;;;;;4963175;28;20451;-67
2021/01/24 09:37:52;;;;;;;6.18;2.45;;;3.90;99.90;;;;;;4965051;28;20070;-68
2021/01/24 09:40:18;;;;;;;7.22;1.67;;;3.90;99.90;;;;;;4960685;28;20043;-68
2021/01/24 09:42:45;;;;;;;4.57;1.30;;;3.90;99.90;;;;;;4973151;28;20074;-66
2021/01/24 09:45:12;;;;;;;9.07;1.83;;;3.90;99.90;;;;;;4963700;28;20050;-66
2021/01/24 09:47:39;;;;;;;13.27;2.28;;;4.00;99.90;;;;;;4967438;28;20110;-66
2021/01/24 09:50:06;;;;;;;5.53;2.20;;;4.00;99.90;;;;;;4963337;28;20390;-68
2021/01/24 09:52:32;;;;;;;10.93;5.13;;;4.00;99.90;;;;;;4964751;28;20074;-68
2021/01/24 09:54:59;;;;;;;9.32;2.00;;;4.00;99.90;;;;;;4962284;28;20050;-65
2021/01/24 09:57:25;;;;;;;10.00;1.63;;;3.90;99.90;;;;;;4962466;28;20050;-68
2021/01/24 09:59:51;;;;;;;8.98;2.17;;;3.90;99.90;;;;;;4965651;28;20518;-69
2021/01/24 10:02:18;;;;;;;6.13;1.50;;;3.90;99.90;;;;;;4961274;28;20447;-68
2021/01/24 10:04:44;;;;;;;6.72;1.67;;;4.00;99.90;;;;;;4968603;28;20051;-67
2021/01/24 10:07:11;;;;;;;8.45;2.13;;;4.00;99.90;;;;;;4962852;28;20038;-67
2021/01/24 10:09:37;;;;;;;6.57;1.70;;;4.00;99.90;;;;;;4961121;28;20129;-67
2021/01/24 10:12:04;;;;;;;6.43;1.77;;;4.00;99.90;;;;;;4961087;28;20478;-68
2021/01/24 10:14:31;;;;;;;11.55;1.77;;;4.10;99.90;;;;;;4966838;28;20553;-68
2021/01/24 10:16:57;;;;;;;5.93;1.85;;;4.10;99.90;;;;;;4960879;28;20606;-67
2021/01/24 10:19:24;;;;;;;8.57;2.05;;;4.20;99.90;;;;;;4964781;28;20046;-65
2021/01/24 10:21:50;;;;;;;7.07;2.40;;;4.20;99.90;;;;;;4963214;28;20066;-67
2021/01/24 10:24:16;;;;;;;7.70;2.78;;;4.20;99.90;;;;;;4959672;28;20136;-67
2021/01/24 10:26:43;;;;;;;8.23;2.00;;;4.20;99.90;;;;;;4964421;28;20142;-67
2021/01/24 10:29:10;;;;;;;11.75;2.42;;;4.20;99.90;;;;;;4961885;28;20068;-67
2021/01/24 10:31:36;;;;;;;7.60;2.40;;;4.20;99.90;;;;;;4967378;28;20140;-65
2021/01/24 10:34:03;;;;;;;13.07;2.35;;;4.20;99.90;;;;;;4961712;28;20057;-67
2021/01/24 10:36:29;;;;;;;12.05;2.45;;;4.20;99.90;;;;;;4959279;28;20050;-65
2021/01/24 10:38:55;;;;;;;11.90;2.88;;;4.20;99.90;;;;;;4960166;28;20061;-68
2021/01/24 10:41:22;;;;;;;9.38;3.88;;;4.20;99.90;;;;;;4965385;28;20169;-66
2021/01/24 10:43:48;;;;;;;13.68;2.88;;;4.20;99.90;;;;;;4960493;28;20046;-65
2021/01/24 10:46:31;;;;;;;16.55;3.38;;;4.20;99.90;;;;;;4972890;28;20069;-69
2021/01/24 10:48:59;;;;;;;6.95;2.05;;;4.20;99.90;;;;;;4960119;28;20113;-67
2021/01/24 10:51:26;;;;;;;11.98;2.80;;;4.20;99.90;;;;;;4965287;28;20050;-66
2021/01/24 10:53:52;;;;;;;13.50;4.47;;;4.20;99.90;;;;;;4959204;28;20050;-70
2021/01/24 10:56:19;;;;;;;16.27;2.55;;;4.20;99.90;;;;;;4962610;28;20542;-66
2021/01/24 10:58:45;;;;;;;18.15;3.17;;;4.20;99.90;;;;;;4968388;28;20484;-68
2021/01/24 11:01:13;;;;;;;10.43;3.25;;;4.20;99.90;;;;;;4963788;28;20117;-65
2021/01/24 11:03:39;;;;;;;9.93;3.50;;;4.20;99.90;;;;;;4962706;28;20054;-68
2021/01/24 11:06:06;;;;;;;15.57;4.60;;;4.20;99.90;;;;;;4962002;28;20121;-65
2021/01/24 11:08:32;;;;;;;11.73;3.88;;;4.20;99.90;;;;;;4962336;28;20169;-70
2021/01/24 11:10:59;;;;;;;16.00;2.45;;;4.30;99.90;;;;;;4960541;28;20423;-66
2021/01/24 11:13:25;;;;;;;10.43;4.65;;;4.30;99.90;;;;;;4963451;28;20051;-68
2021/01/24 11:15:51;;;;;;;10.88;2.90;;;4.30;99.90;;;;;;4959607;28;20384;-68
2021/01/24 11:18:18;;;;;;;10.95;3.10;;;4.30;99.90;;;;;;4964622;28;20379;-67
2021/01/24 11:20:45;;;;;;;13.93;3.25;;;4.30;99.90;;;;;;4960929;28;20085;-68
2021/01/24 11:23:12;;;;;;;12.80;2.92;;;4.30;99.90;;;;;;4959029;28;20450;-66
2021/01/24 11:25:39;;;;;;;12.32;3.20;;;4.30;99.90;;;;;;4957146;28;20106;-67
2021/01/24 11:28:06;;;;;;;10.23;3.63;;;4.30;99.90;;;;;;4963592;28;20399;-67
2021/01/24 11:30:33;;;;;;;11.65;2.80;;;4.30;99.90;;;;;;4962692;28;20054;-65
2021/01/24 11:32:59;;;;;;;15.82;2.83;;;4.30;99.90;;;;;;4959641;28;20083;-66
2021/01/24 11:35:26;;;;;;;14.50;4.65;;;4.30;99.90;;;;;;4961484;28;20070;-66
2021/01/24 11:37:52;;;;;;;12.57;3.13;;;4.30;99.90;;;;;;4958544;28;20094;-68
2021/01/24 11:40:19;;;;;;;16.25;3.40;;;4.30;99.90;;;;;;4953071;28;20494;-65
2021/01/24 11:42:45;;;;;;;8.75;2.75;;;4.30;99.90;;;;;;4960241;28;20067;-72
2021/01/24 11:45:12;;;;;;;9.73;2.83;;;4.40;99.90;;;;;;4968417;28;20042;-66
2021/01/24 11:47:39;;;;;;;6.90;2.88;;;4.40;99.90;;;;;;4961057;28;20335;-65
2021/01/24 11:50:06;;;;;;;8.52;2.42;;;4.40;99.90;;;;;;4962020;28;20039;-69
2021/01/24 11:52:32;;;;;;;15.93;2.55;;;4.40;99.90;;;;;;4964273;28;20054;-68
2021/01/24 11:54:59;;;;;;;7.10;2.78;;;4.40;99.90;;;;;;4963943;28;20046;-65
2021/01/24 11:57:27;;;;;;;7.72;4.05;;;4.50;99.90;;;;;;4967522;28;20047;-66
2021/01/24 11:59:54;;;;;;;14.00;2.40;;;4.40;99.90;;;;;;4965677;28;20102;-66
2021/01/24 12:02:24;;;;;;;14.82;3.97;;;4.40;99.90;;;;;;4963856;28;20690;-66
2021/01/24 12:04:51;;;;;;;;;;;4.50;99.90;;;;;;4965109;28;20134;-66
2021/01/24 12:07:17;;;;;;;7.18;2.78;;;4.50;99.90;;;;;;4967528;28;19922;-65
2021/01/24 12:09:43;;;;;;;12.40;3.13;;;4.50;99.90;;;;;;4963481;28;20055;-71
2021/01/24 12:12:10;;;;;;;12.90;3.45;;;4.50;99.90;;;;;;4970989;28;20408;-69
2021/01/24 12:14:37;;;;;;;9.38;2.40;;;4.50;99.90;;;;;;4962517;28;20067;-66
2021/01/24 12:17:03;;;;;;;7.28;2.60;;;4.50;99.90;;;;;;4969902;28;20687;-65
2021/01/24 12:19:30;;;;;;;11.20;3.47;;;4.50;99.90;;;;;;4967758;28;20051;-71
2021/01/24 12:21:56;;;;;;;12.68;3.75;;;4.50;99.90;;;;;;4966455;28;20058;-66
2021/01/24 12:24:22;;;;;;;7.53;2.13;;;4.40;99.90;;;;;;4969699;28;20208;-69
2021/01/24 12:26:49;;;;;;;10.23;3.00;;;4.50;99.90;;;;;;4963429;28;20043;-65
2021/01/24 12:29:15;;;;;;;17.75;3.85;;;4.50;99.90;;;;;;4961340;28;20106;-68
2021/01/24 12:31:42;;;;;;;7.68;2.50;;;4.50;99.90;;;;;;4963676;28;20054;-72
2021/01/24 12:34:08;;;;;;;10.88;3.13;;;4.40;99.90;;;;;;4962865;28;20122;-68
2021/01/24 12:36:35;;;;;;;8.75;2.22;;;4.40;99.90;;;;;;4962671;28;20039;-67
2021/01/24 12:39:02;;;;;;;16.05;3.28;;;4.40;99.90;;;;;;4964458;28;20776;-68
2021/01/24 12:41:29;;;;;;;9.35;2.80;;;4.40;99.90;;;;;;4960533;28;20058;-65
2021/01/24 12:43:55;;;;;;;13.63;2.97;;;4.30;99.90;;;;;;4971809;28;20054;-66
2021/01/24 12:46:22;;;;;;;10.43;5.10;;;4.30;99.90;;;;;;4962300;28;20577;-72
2021/01/24 12:48:48;;;;;;;11.18;3.08;;;4.30;99.90;;;;;;4966982;28;20054;-67
2021/01/24 12:51:15;;;;;;;15.55;4.43;;;4.30;99.90;;;;;;4963022;28;20510;-67
2021/01/24 12:53:46;;;;;;;13.43;3.10;;;4.20;99.90;;;;;;4963077;28;20090;-69
2021/01/24 12:56:13;;;;;;;10.65;2.92;;;4.30;99.90;;;;;;4961914;28;20523;-66
2021/01/24 12:58:39;;;;;;;6.47;3.83;;;4.20;99.90;;;;;;4964035;28;20579;-65
2021/01/24 13:01:09;;;;;;;9.93;2.30;;;4.20;99.90;;;;;;4965151;28;20070;-71
2021/01/24 13:03:35;;;;;;;9.82;2.50;;;4.20;99.90;;;;;;4964351;28;20381;-67
2021/01/24 13:06:02;;;;;;;16.23;6.20;;;4.10;99.90;;;;;;4967209;28;20051;-68